createdAt,value
2019-01-21T00:02:13.146Z,-2.10
2019-01-21T00:04:42.121Z,-2.14
2019-01-21T00:07:30.056Z,-2.12
2019-01-21T00:10:18.579Z,-2.16
2019-01-21T00:24:45.269Z,-1.98
2019-01-21T00:27:14.011Z,-1.89
2019-01-21T00:29:42.669Z,-1.89
2019-01-21T00:32:11.294Z,-2.02
2019-01-21T00:34:39.920Z,-2.18
2019-01-21T00:37:08.596Z,-2.22
2019-01-21T00:39:37.390Z,-2.26
2019-01-21T00:42:26.759Z,-2.24
2019-01-21T00:44:55.402Z,-2.46
2019-01-21T00:47:29.821Z,-2.46
2019-01-21T00:49:54.546Z,-2.37
2019-01-21T00:52:23.225Z,-2.43
2019-01-21T00:54:51.845Z,-2.47
2019-01-21T00:57:20.556Z,-2.49
2019-01-21T00:59:49.236Z,-2.56
2019-01-21T01:02:17.915Z,-2.66
2019-01-21T01:04:46.601Z,-2.66
2019-01-21T01:07:15.337Z,-2.64
2019-01-21T01:09:44.022Z,-2.60
2019-01-21T01:12:12.710Z,-2.65
2019-01-21T01:14:41.513Z,-2.56
2019-01-21T01:17:10.121Z,-2.55
2019-01-21T01:19:38.767Z,-2.64
2019-01-21T01:22:07.522Z,-2.62
2019-01-21T01:24:36.166Z,-2.65
2019-01-21T01:27:04.862Z,-2.77
2019-01-21T01:29:33.515Z,-2.76
2019-01-21T01:32:02.221Z,-2.66
2019-01-21T01:34:30.947Z,-2.79
2019-01-21T01:36:59.629Z,-2.86
2019-01-21T01:39:28.351Z,-2.82
2019-01-21T01:41:56.974Z,-2.82
2019-01-21T01:44:25.926Z,-2.84
2019-01-21T01:46:54.565Z,-2.84
2019-01-21T01:49:23.296Z,-2.77
2019-01-21T01:51:52.029Z,-2.91
2019-01-21T01:54:20.703Z,-2.92
2019-01-21T01:56:49.448Z,-2.95
2019-01-21T01:59:18.182Z,-2.88
2019-01-21T02:01:46.821Z,-2.90
2019-01-21T02:04:15.445Z,-3.01
2019-01-21T02:06:44.134Z,-2.95
2019-01-21T02:09:12.838Z,-2.90
2019-01-21T02:11:41.783Z,-2.99
2019-01-21T02:14:10.467Z,-2.99
2019-01-21T02:16:39.123Z,-2.89
2019-01-21T02:19:07.902Z,-3.05
2019-01-21T02:21:37.664Z,-2.99
2019-01-21T02:24:08.658Z,-2.93
2019-01-21T02:27:15.787Z,-3.00
2019-01-21T02:30:23.293Z,-2.99
2019-01-21T02:33:20.321Z,-2.88
2019-01-21T02:36:27.448Z,-2.98
2019-01-21T02:39:21.218Z,-2.97
2019-01-21T02:42:05.578Z,-2.97
2019-01-21T02:45:12.687Z,-3.01
2019-01-21T02:48:03.142Z,-3.03
2019-01-21T02:51:10.253Z,-3.07
2019-01-21T02:54:03.664Z,-3.22
2019-01-21T02:57:10.834Z,-3.20
2019-01-21T03:00:17.918Z,-3.30
2019-01-21T03:03:25.041Z,-3.18
2019-01-21T03:06:32.176Z,-3.20
2019-01-21T03:09:39.317Z,-3.13
2019-01-21T03:12:46.438Z,-3.18
2019-01-21T03:15:53.533Z,-3.24
2019-01-21T03:18:46.392Z,-3.27
2019-01-21T03:21:53.545Z,-3.33
2019-01-21T03:25:00.678Z,-3.39
2019-01-21T03:28:08.075Z,-3.40
2019-01-21T03:34:34.391Z,-3.43
2019-01-21T03:37:41.516Z,-3.37
2019-01-21T03:40:48.604Z,-3.45
2019-01-21T03:43:55.740Z,-3.44
2019-01-21T03:46:48.872Z,-3.50
2019-01-21T03:49:24.471Z,-3.37
2019-01-21T03:52:19.153Z,-3.47
2019-01-21T03:55:09.340Z,-3.53
2019-01-21T03:58:16.436Z,-3.47
2019-01-21T04:01:07.792Z,-3.45
2019-01-21T04:04:02.113Z,-3.48
2019-01-21T04:07:09.292Z,-3.50
2019-01-21T04:10:16.418Z,-3.43
2019-01-21T04:13:08.549Z,-3.55
2019-01-21T04:16:04.682Z,-3.54
2019-01-21T04:18:57.292Z,-3.38
2019-01-21T04:22:04.419Z,-3.58
2019-01-21T04:25:11.549Z,-3.61
2019-01-21T04:28:18.668Z,-3.55
2019-01-21T04:31:26.329Z,-3.56
2019-01-21T04:34:11.445Z,-3.54
2019-01-21T04:37:20.244Z,-3.57
2019-01-21T04:40:27.366Z,-3.71
2019-01-21T04:43:23.470Z,-3.73
2019-01-21T04:46:15.495Z,-3.71
2019-01-21T04:49:22.661Z,-3.71
2019-01-21T04:52:29.807Z,-3.70
2019-01-21T04:55:36.963Z,-3.78
2019-01-21T04:58:44.075Z,-3.78
2019-01-21T05:01:51.303Z,-3.75
2019-01-21T05:04:58.424Z,-3.69
2019-01-21T05:07:52.418Z,-3.73
2019-01-21T05:10:45.991Z,-3.72
2019-01-21T05:17:11.365Z,-3.76
2019-01-21T05:20:18.541Z,-3.78
2019-01-21T05:23:25.656Z,-3.73
2019-01-21T05:26:32.748Z,-3.72
2019-01-21T05:29:39.888Z,-3.83
2019-01-21T05:32:47.019Z,-3.82
2019-01-21T05:35:54.148Z,-3.84
2019-01-21T05:39:01.259Z,-3.96
2019-01-21T05:42:08.386Z,-3.82
2019-01-21T05:45:15.533Z,-3.83
2019-01-21T05:50:30.980Z,-3.85
2019-01-21T05:53:38.097Z,-3.88
2019-01-21T05:56:45.292Z,-3.96
2019-01-21T06:02:47.026Z,-3.85
2019-01-21T06:05:49.051Z,-3.81
2019-01-21T06:08:56.184Z,-3.79
2019-01-21T06:11:50.806Z,-3.79
2019-01-21T06:14:57.922Z,-3.78
2019-01-21T06:18:05.055Z,-3.84
2019-01-21T06:21:12.176Z,-3.92
2019-01-21T06:23:48.226Z,-3.95
2019-01-21T06:26:55.320Z,-4.00
2019-01-21T06:30:02.465Z,-3.98
2019-01-21T06:33:09.617Z,-4.02
2019-01-21T06:36:16.741Z,-3.96
2019-01-21T06:39:23.838Z,-3.85
2019-01-21T06:42:30.947Z,-3.79
2019-01-21T06:45:38.082Z,-3.95
2019-01-21T06:48:32.581Z,-3.91
2019-01-21T06:51:39.686Z,-3.96
2019-01-21T06:54:32.045Z,-3.91
2019-01-21T06:57:26.561Z,-3.90
2019-01-21T07:00:33.706Z,-3.90
2019-01-21T07:06:45.643Z,-3.96
2019-01-21T07:09:37.148Z,-3.98
2019-01-21T07:12:22.121Z,-3.86
2019-01-21T07:15:29.231Z,-3.96
2019-01-21T07:18:36.348Z,-3.96
2019-01-21T07:21:43.461Z,-3.98
2019-01-21T07:24:50.568Z,-4.04
2019-01-21T07:27:57.684Z,-4.19
2019-01-21T07:31:04.843Z,-4.10
2019-01-21T07:34:12.026Z,-4.17
2019-01-21T07:36:51.059Z,-4.17
2019-01-21T07:39:58.185Z,-4.09
2019-01-21T07:43:05.322Z,-4.08
2019-01-21T07:46:12.475Z,-3.92
2019-01-21T07:49:19.599Z,-3.73
2019-01-21T07:52:33.502Z,-3.83
2019-01-21T07:55:09.105Z,-3.86
2019-01-21T07:58:04.956Z,-4.06
2019-01-21T08:01:12.113Z,-4.11
2019-01-21T08:04:19.569Z,-4.02
2019-01-21T08:06:58.643Z,-3.93
2019-01-21T08:10:05.356Z,-3.88
2019-01-21T08:13:12.478Z,-3.87
2019-01-21T08:16:19.611Z,-3.88
2019-01-21T08:19:26.741Z,-3.89
2019-01-21T08:22:33.865Z,-3.83
2019-01-21T08:25:29.215Z,-3.82
2019-01-21T08:28:36.358Z,-3.85
2019-01-21T08:31:36.838Z,-3.82
2019-01-21T08:34:43.982Z,-3.72
2019-01-21T08:37:36.303Z,-3.72
2019-01-21T08:40:31.170Z,-3.58
2019-01-21T08:43:38.293Z,-3.51
2019-01-21T08:46:45.439Z,-3.47
2019-01-21T08:49:52.555Z,-3.38
2019-01-21T08:52:44.637Z,-3.47
2019-01-21T08:55:51.767Z,-3.37
2019-01-21T08:58:44.372Z,-3.35
2019-01-21T09:01:51.493Z,-3.32
2019-01-21T09:04:58.629Z,-3.25
2019-01-21T09:07:53.481Z,-3.19
2019-01-21T09:10:46.326Z,-3.11
2019-01-21T09:13:53.447Z,-3.08
2019-01-21T09:17:00.579Z,-2.87
2019-01-21T09:20:10.814Z,-2.84
2019-01-21T09:23:16.575Z,-2.72
2019-01-21T09:26:23.696Z,-2.67
2019-01-21T09:29:15.332Z,-2.62
2019-01-21T09:32:22.427Z,-2.45
2019-01-21T09:35:18.144Z,-2.43
2019-01-21T09:38:25.261Z,-2.31
2019-01-21T09:41:32.379Z,-2.26
2019-01-21T09:44:23.179Z,-2.22
2019-01-21T09:46:51.308Z,-2.15
2019-01-21T09:49:18.689Z,-2.16
2019-01-21T09:52:28.470Z,-2.09
2019-01-21T09:54:57.182Z,-1.96
2019-01-21T10:00:40.720Z,-1.97
2019-01-21T10:03:30.156Z,-1.99
2019-01-21T10:06:21.458Z,-1.90
2019-01-21T10:09:16.892Z,-1.85
2019-01-21T10:12:23.990Z,-1.79
2019-01-21T10:15:31.110Z,-1.67
2019-01-21T10:18:23.927Z,-1.62
2019-01-21T10:21:31.086Z,-1.53
2019-01-21T10:24:22.941Z,-1.55
2019-01-21T10:27:30.053Z,-1.54
2019-01-21T10:30:30.019Z,-1.43
2019-01-21T10:33:37.142Z,-1.31
2019-01-21T10:36:44.295Z,-1.27
2019-01-21T10:39:51.427Z,-1.14
2019-01-21T10:42:58.570Z,-1.17
2019-01-21T10:45:54.051Z,-1.17
2019-01-21T10:48:45.602Z,-1.09
2019-01-21T10:51:52.740Z,-1.04
2019-01-21T10:54:59.855Z,-1.02
2019-01-21T10:58:07.002Z,-0.89
2019-01-21T11:01:00.429Z,-0.80
2019-01-21T11:04:07.556Z,-0.85
2019-01-21T11:07:02.778Z,-0.82
2019-01-21T11:09:53.598Z,-0.79
2019-01-21T11:12:45.154Z,-0.74
2019-01-21T11:15:35.572Z,-0.70
2019-01-21T11:18:42.677Z,-0.61
2019-01-21T11:21:49.797Z,-0.56
2019-01-21T11:24:56.894Z,-0.55
2019-01-21T11:28:04.005Z,-0.38
2019-01-21T11:31:11.147Z,-0.38
2019-01-21T11:34:18.262Z,-0.38
2019-01-21T11:37:13.286Z,-0.36
2019-01-21T11:40:20.393Z,-0.24
2019-01-21T11:43:27.533Z,-0.19
2019-01-21T11:46:34.651Z,-0.13
2019-01-21T11:49:25.943Z,-0.17
2019-01-21T11:52:04.851Z,-0.07
2019-01-21T11:55:11.958Z,-0.08
2019-01-21T11:58:19.096Z,-0.08
2019-01-21T12:01:26.223Z,-0.06
2019-01-21T12:04:16.599Z,-0.02
2019-01-21T12:07:11.433Z,0.09
2019-01-21T12:10:18.578Z,0.12
2019-01-21T12:13:21.497Z,0.18
2019-01-21T12:16:28.706Z,0.25
2019-01-21T12:19:19.953Z,0.33
2019-01-21T12:22:27.062Z,0.41
2019-01-21T12:25:05.213Z,0.44
2019-01-21T12:27:57.111Z,0.46
2019-01-21T12:31:04.188Z,0.47
2019-01-21T12:34:11.314Z,0.34
2019-01-21T12:37:06.004Z,0.30
2019-01-21T12:39:57.724Z,0.33
2019-01-21T12:43:09.174Z,0.41
2019-01-21T12:45:49.255Z,0.48
2019-01-21T12:48:56.397Z,0.39
2019-01-21T12:52:03.499Z,0.44
2019-01-21T12:55:10.624Z,0.54
2019-01-21T12:58:17.756Z,0.53
2019-01-21T13:01:24.873Z,0.48
2019-01-21T13:04:31.980Z,0.72
2019-01-21T13:07:39.075Z,0.71
2019-01-21T13:10:46.191Z,0.74
2019-01-21T13:13:38.418Z,0.76
2019-01-21T13:16:45.527Z,0.77
2019-01-21T13:19:52.658Z,0.66
2019-01-21T13:22:59.786Z,0.70
2019-01-21T13:25:43.902Z,0.87
2019-01-21T13:28:34.701Z,0.87
2019-01-21T13:31:41.880Z,0.83
2019-01-21T13:34:48.996Z,0.87
2019-01-21T13:37:43.863Z,0.92
2019-01-21T13:40:50.990Z,0.85
2019-01-21T13:43:58.125Z,0.90
2019-01-21T13:46:53.415Z,0.87
2019-01-21T13:49:33.275Z,0.94
2019-01-21T13:52:40.399Z,1.00
2019-01-21T13:55:47.536Z,0.86
2019-01-21T13:58:49.764Z,1.11
2019-01-21T14:01:56.875Z,1.12
2019-01-21T14:04:52.142Z,0.89
2019-01-21T14:07:59.258Z,0.92
2019-01-21T14:11:06.384Z,0.98
2019-01-21T14:13:57.022Z,1.02
2019-01-21T14:16:59.015Z,1.10
2019-01-21T14:20:06.135Z,0.98
2019-01-21T14:23:13.262Z,1.15
2019-01-21T14:26:20.384Z,0.99
2019-01-21T14:29:27.489Z,1.11
2019-01-21T14:32:34.635Z,1.16
2019-01-21T14:35:41.729Z,1.14
2019-01-21T14:38:48.859Z,1.11
2019-01-21T14:41:55.977Z,1.06
2019-01-21T14:45:03.090Z,0.93
2019-01-21T14:48:06.118Z,0.84
2019-01-21T14:51:13.211Z,1.07
2019-01-21T14:54:20.374Z,1.01
2019-01-21T14:57:27.503Z,0.92
2019-01-21T15:00:21.869Z,0.87
2019-01-21T15:03:02.126Z,0.90
2019-01-21T15:06:09.336Z,0.96
2019-01-21T15:09:20.741Z,1.01
2019-01-21T15:12:27.820Z,0.91
2019-01-21T15:15:22.687Z,0.85
2019-01-21T15:18:17.441Z,0.73
2019-01-21T15:21:07.897Z,0.92
2019-01-21T15:24:15.240Z,0.84
2019-01-21T15:27:07.520Z,0.81
2019-01-21T15:30:00.027Z,0.69
2019-01-21T15:32:51.758Z,0.56
2019-01-21T15:35:58.882Z,0.51
2019-01-21T15:39:06.000Z,0.46
2019-01-21T15:42:10.762Z,0.38
2019-01-21T15:45:18.004Z,0.33
2019-01-21T15:48:13.545Z,0.24
2019-01-21T15:51:22.446Z,0.12
2019-01-21T15:54:29.569Z,-0.03
2019-01-21T15:57:29.446Z,-0.07
2019-01-21T16:00:36.616Z,-0.07
2019-01-21T16:03:43.772Z,-0.11
2019-01-21T16:06:50.940Z,-0.18
2019-01-21T16:09:32.568Z,-0.27
2019-01-21T16:12:25.269Z,-0.37
2019-01-21T16:18:28.808Z,-0.55
2019-01-21T16:33:20.633Z,-0.96
2019-01-21T16:36:27.934Z,-1.05
2019-01-21T16:39:36.387Z,-1.23
2019-01-21T16:51:08.514Z,-1.33
2019-01-21T16:57:28.287Z,-1.35
2019-01-21T17:00:01.901Z,-1.37
2019-01-21T17:05:25.820Z,-1.63
2019-01-21T17:07:54.572Z,-1.66
2019-01-21T17:10:23.343Z,-1.66
2019-01-21T17:12:52.037Z,-1.71
2019-01-21T17:15:20.715Z,-1.79
2019-01-21T17:17:49.334Z,-1.82
2019-01-21T17:20:19.877Z,-1.76
2019-01-21T17:22:48.606Z,-1.82
2019-01-21T17:25:17.450Z,-1.75
2019-01-21T17:27:46.200Z,-1.74
2019-01-21T17:30:15.586Z,-1.73
2019-01-21T17:32:44.332Z,-1.78
2019-01-21T17:35:13.676Z,-2.15
2019-01-21T17:37:42.629Z,-2.06
2019-01-21T17:40:13.327Z,-2.02
2019-01-21T17:42:42.141Z,-2.01
2019-01-21T17:45:13.774Z,-1.99
2019-01-21T17:47:42.629Z,-2.05
2019-01-21T17:50:12.088Z,-2.11
2019-01-21T17:52:40.907Z,-2.12
2019-01-21T17:55:09.825Z,-2.15
2019-01-21T17:57:38.611Z,-2.19
2019-01-21T18:03:02.852Z,-2.27
2019-01-21T18:05:31.695Z,-2.34
2019-01-21T18:08:00.456Z,-2.44
2019-01-21T18:10:29.176Z,-2.46
2019-01-21T18:12:57.943Z,-2.46
2019-01-21T18:15:26.619Z,-2.42
2019-01-21T18:17:55.256Z,-2.59
2019-01-21T18:20:27.407Z,-2.59
2019-01-21T18:23:17.761Z,-2.52
2019-01-21T18:28:46.796Z,-2.70
2019-01-21T18:31:16.084Z,-2.77
2019-01-21T18:33:50.074Z,-2.70
2019-01-21T18:36:24.102Z,-2.85
2019-01-21T18:38:54.099Z,-2.93
2019-01-21T18:41:23.208Z,-3.15
2019-01-21T18:43:57.354Z,-3.20
2019-01-21T18:46:26.580Z,-3.22
2019-01-21T18:49:22.804Z,-3.35
2019-01-21T18:55:02.059Z,-3.35
2019-01-21T18:57:20.417Z,-3.42
2019-01-21T19:02:52.146Z,-3.47
2019-01-21T19:05:21.874Z,-3.38
2019-01-21T19:14:12.667Z,-3.52
2019-01-21T19:16:45.144Z,-3.67
2019-01-21T19:21:53.617Z,-3.47
2019-01-21T19:27:31.789Z,-3.73
2019-01-21T19:35:41.868Z,-3.64
2019-01-21T19:38:20.573Z,-3.58
2019-01-21T19:40:50.072Z,-3.64
2019-01-21T19:44:34.504Z,-3.69
2019-01-21T19:45:50.860Z,-3.66
2019-01-21T19:48:19.790Z,-3.66
2019-01-21T19:53:44.647Z,-4.04
2019-01-21T19:58:57.691Z,-3.92
2019-01-21T20:01:26.975Z,-3.93
2019-01-21T20:04:15.528Z,-4.00
2019-01-21T20:06:45.398Z,-4.02
2019-01-21T20:14:49.039Z,-4.12
2019-01-21T20:20:32.482Z,-4.16
2019-01-21T20:26:10.542Z,-4.47
2019-01-21T20:28:40.199Z,-4.54
2019-01-21T20:31:29.132Z,-4.50
2019-01-21T20:33:58.848Z,-4.58
2019-01-21T20:37:10.721Z,-4.70
2019-01-21T20:42:30.415Z,-4.82
2019-01-21T20:47:48.946Z,-4.81
2019-01-21T20:50:58.793Z,-4.72
2019-01-21T20:53:28.986Z,-4.80
2019-01-21T21:05:06.422Z,-4.74
2019-01-21T21:07:59.846Z,-4.71
2019-01-21T21:10:31.714Z,-5.08
2019-01-21T21:13:01.415Z,-5.09
2019-01-21T21:18:45.361Z,-5.15
2019-01-21T21:21:14.380Z,-4.97
2019-01-21T21:23:44.767Z,-4.98
2019-01-21T21:26:53.912Z,-5.00
2019-01-21T21:32:38.965Z,-5.13
2019-01-21T21:35:08.078Z,-5.23
2019-01-21T21:37:58.292Z,-5.13
2019-01-21T21:40:28.291Z,-5.10
2019-01-21T21:43:00.208Z,-5.24
2019-01-21T21:46:03.367Z,-5.30
2019-01-21T21:57:25.102Z,-5.40
2019-01-21T21:59:54.777Z,-5.44
2019-01-21T22:02:27.082Z,-5.40
2019-01-21T22:04:56.622Z,-5.38
2019-01-21T22:10:28.960Z,-5.56
2019-01-21T22:13:02.832Z,-5.70
2019-01-21T22:15:32.272Z,-5.73
2019-01-21T22:18:02.223Z,-5.56
2019-01-21T22:20:32.417Z,-5.58
2019-01-21T22:23:04.778Z,-5.56
2019-01-21T22:26:02.284Z,-5.56
2019-01-21T22:28:43.912Z,-5.49
2019-01-21T22:31:13.254Z,-5.55
2019-01-21T22:33:45.443Z,-5.71
2019-01-21T22:36:20.587Z,-5.71
2019-01-21T22:38:53.266Z,-5.74
2019-01-21T22:41:23.912Z,-5.78
2019-01-21T22:43:53.083Z,-5.77
2019-01-21T22:52:01.593Z,-5.90
2019-01-21T22:55:21.798Z,-5.70
2019-01-21T22:57:40.665Z,-5.95
2019-01-21T23:03:28.118Z,-5.82
2019-01-21T23:05:57.355Z,-5.85
2019-01-21T23:08:27.199Z,-5.91
2019-01-21T23:10:56.168Z,-5.93
2019-01-21T23:16:19.072Z,-6.04
2019-01-21T23:18:50.968Z,-6.06
2019-01-21T23:21:20.140Z,-6.06
2019-01-21T23:24:08.456Z,-6.09
2019-01-21T23:29:32.445Z,-6.13
2019-01-21T23:32:01.593Z,-6.25
2019-01-21T23:34:32.087Z,-6.27
2019-01-21T23:37:00.998Z,-6.30
2019-01-21T23:39:29.821Z,-6.33
2019-01-21T23:41:58.702Z,-6.30
2019-01-21T23:44:27.615Z,-6.23
2019-01-21T23:46:58.998Z,-6.28
2019-01-21T23:49:27.939Z,-6.25
2019-01-21T23:51:57.792Z,-6.15
2019-01-21T23:54:26.539Z,-6.12
2019-01-21T23:56:56.138Z,-6.17
2019-01-21T23:59:25.047Z,-6.35
